createdAt,value
2017-10-31T00:00:18.569Z,4.40
2017-10-31T00:02:44.844Z,4.70
2017-10-31T00:05:11.144Z,4.70
2017-10-31T00:07:37.486Z,4.70
2017-10-31T00:10:04.664Z,4.40
2017-10-31T00:12:30.973Z,4.40
2017-10-31T00:14:58.016Z,4.20
2017-10-31T00:17:25.068Z,4.20
2017-10-31T00:19:52.152Z,4.10
2017-10-31T00:22:18.460Z,4.10
2017-10-31T00:24:44.769Z,4.00
2017-10-31T00:27:11.817Z,4.10
2017-10-31T00:29:38.859Z,4.30
2017-10-31T00:32:05.925Z,4.30
2017-10-31T00:34:32.237Z,4.30
2017-10-31T00:36:59.280Z,4.30
2017-10-31T00:39:26.332Z,4.20
2017-10-31T00:41:53.419Z,4.00
2017-10-31T00:44:20.624Z,4.00
2017-10-31T00:46:46.901Z,3.80
2017-10-31T00:49:13.216Z,3.70
2017-10-31T00:51:39.674Z,3.70
2017-10-31T00:54:05.980Z,3.60
2017-10-31T00:56:32.261Z,3.60
2017-10-31T00:58:58.561Z,3.40
2017-10-31T01:01:24.869Z,3.40
2017-10-31T01:03:51.172Z,3.50
2017-10-31T01:06:18.224Z,3.70
2017-10-31T01:08:45.257Z,3.80
2017-10-31T01:11:11.552Z,3.80
2017-10-31T01:13:37.830Z,3.80
2017-10-31T01:16:04.892Z,3.70
2017-10-31T01:18:31.173Z,3.70
2017-10-31T01:20:57.499Z,3.50
2017-10-31T01:23:23.800Z,3.40
2017-10-31T01:25:50.285Z,3.40
2017-10-31T01:28:16.596Z,3.50
2017-10-31T01:30:42.915Z,3.40
2017-10-31T01:33:09.201Z,3.50
2017-10-31T01:35:35.512Z,3.70
2017-10-31T01:38:02.560Z,3.30
2017-10-31T01:40:29.712Z,3.20
2017-10-31T01:42:56.763Z,3.20
2017-10-31T01:45:23.798Z,3.20
2017-10-31T01:47:50.839Z,3.10
2017-10-31T01:50:17.148Z,3.10
2017-10-31T01:52:43.459Z,3.00
2017-10-31T01:55:09.733Z,3.10
2017-10-31T01:57:36.776Z,3.10
2017-10-31T02:00:03.070Z,3.10
2017-10-31T02:02:29.416Z,3.10
2017-10-31T02:04:55.740Z,3.20
2017-10-31T02:07:22.025Z,3.30
2017-10-31T02:09:48.316Z,3.30
2017-10-31T02:12:14.593Z,3.10
2017-10-31T02:14:40.880Z,3.30
2017-10-31T02:17:07.191Z,3.30
2017-10-31T02:19:33.456Z,3.10
2017-10-31T02:22:00.502Z,3.30
2017-10-31T02:24:27.523Z,3.20
2017-10-31T02:26:53.819Z,3.20
2017-10-31T02:29:20.122Z,3.10
2017-10-31T02:31:47.137Z,3.10
2017-10-31T02:34:13.419Z,3.00
2017-10-31T02:36:39.725Z,3.10
2017-10-31T02:39:16.071Z,3.10
2017-10-31T02:41:42.340Z,2.90
2017-10-31T02:44:08.640Z,2.90
2017-10-31T02:46:35.649Z,3.00
2017-10-31T02:49:02.112Z,3.00
2017-10-31T02:51:29.144Z,3.00
2017-10-31T02:53:55.472Z,3.00
2017-10-31T02:56:21.793Z,3.00
2017-10-31T02:58:48.052Z,2.90
2017-10-31T03:01:15.122Z,2.80
2017-10-31T03:03:41.617Z,2.80
2017-10-31T03:06:07.908Z,3.00
2017-10-31T03:08:34.231Z,2.80
2017-10-31T03:11:00.507Z,2.70
2017-10-31T03:13:26.801Z,2.70
2017-10-31T03:15:53.087Z,2.60
2017-10-31T03:18:20.112Z,2.40
2017-10-31T03:20:46.541Z,2.40
2017-10-31T03:23:12.847Z,2.40
2017-10-31T03:25:39.100Z,2.60
2017-10-31T03:28:05.406Z,2.70
2017-10-31T03:30:31.669Z,2.80
2017-10-31T03:32:57.940Z,2.90
2017-10-31T03:35:24.240Z,2.80
2017-10-31T03:37:51.253Z,2.70
2017-10-31T03:40:17.601Z,2.70
2017-10-31T03:42:44.043Z,2.80
2017-10-31T03:45:11.067Z,2.70
2017-10-31T03:47:37.348Z,2.70
2017-10-31T03:50:03.636Z,2.60
2017-10-31T03:52:29.911Z,2.60
2017-10-31T03:54:56.211Z,2.60
2017-10-31T03:57:23.252Z,2.40
2017-10-31T03:59:49.544Z,2.40
2017-10-31T04:02:15.844Z,2.30
2017-10-31T04:04:42.180Z,2.20
2017-10-31T04:07:08.445Z,2.10
2017-10-31T04:09:34.761Z,2.30
2017-10-31T04:12:01.044Z,2.20
2017-10-31T04:14:28.108Z,2.10
2017-10-31T04:16:54.392Z,2.10
2017-10-31T04:19:20.689Z,2.00
2017-10-31T04:21:46.980Z,2.10
2017-10-31T04:24:14.016Z,2.00
2017-10-31T04:26:41.056Z,2.10
2017-10-31T04:29:07.338Z,2.10
2017-10-31T04:31:33.760Z,2.30
2017-10-31T04:34:00.065Z,2.30
2017-10-31T04:36:27.124Z,2.40
2017-10-31T04:38:53.406Z,2.40
2017-10-31T04:41:19.704Z,2.20
2017-10-31T04:43:45.988Z,2.20
2017-10-31T04:46:13.034Z,2.10
2017-10-31T04:48:40.108Z,2.00
2017-10-31T04:51:06.407Z,1.90
2017-10-31T04:53:33.452Z,1.90
2017-10-31T04:55:59.809Z,1.90
2017-10-31T04:58:26.445Z,1.90
2017-10-31T05:00:53.451Z,2.20
2017-10-31T05:03:19.756Z,2.10
2017-10-31T05:05:46.040Z,2.20
2017-10-31T05:08:13.078Z,2.10
2017-10-31T05:10:40.116Z,2.00
2017-10-31T05:13:13.455Z,2.00
2017-10-31T05:15:39.788Z,2.00
2017-10-31T05:18:06.121Z,2.00
2017-10-31T05:20:32.456Z,2.10
2017-10-31T05:22:58.780Z,2.20
2017-10-31T05:25:25.072Z,2.30
2017-10-31T05:27:51.355Z,2.40
2017-10-31T05:30:17.672Z,2.40
2017-10-31T05:32:43.994Z,2.40
2017-10-31T05:35:10.558Z,2.30
2017-10-31T05:37:36.980Z,2.40
2017-10-31T05:40:03.370Z,2.60
2017-10-31T05:42:30.017Z,2.50
2017-10-31T05:44:56.312Z,2.50
2017-10-31T05:47:22.600Z,2.50
2017-10-31T05:49:48.904Z,2.50
2017-10-31T05:52:15.922Z,2.50
2017-10-31T05:54:42.201Z,2.40
2017-10-31T05:57:08.494Z,2.40
2017-10-31T05:59:35.536Z,2.60
2017-10-31T06:02:01.841Z,2.60
2017-10-31T06:04:28.147Z,2.70
2017-10-31T06:06:54.460Z,2.70
2017-10-31T06:09:20.748Z,2.70
2017-10-31T06:11:47.028Z,2.90
2017-10-31T06:14:13.324Z,3.10
2017-10-31T06:16:40.391Z,3.00
2017-10-31T06:19:06.714Z,3.00
2017-10-31T06:21:39.892Z,3.20
2017-10-31T06:27:15.940Z,3.20
2017-10-31T06:29:59.132Z,3.30
2017-10-31T06:32:25.430Z,3.40
2017-10-31T06:34:52.489Z,3.50
2017-10-31T06:37:18.905Z,3.50
2017-10-31T06:39:45.979Z,3.90
2017-10-31T06:42:12.321Z,3.80
2017-10-31T06:44:38.639Z,3.90
2017-10-31T06:47:04.932Z,3.90
2017-10-31T06:49:31.992Z,3.80
2017-10-31T06:51:59.004Z,3.80
2017-10-31T06:54:25.297Z,3.80
2017-10-31T06:56:51.580Z,3.90
2017-10-31T06:59:17.859Z,3.90
2017-10-31T07:01:44.421Z,4.00
2017-10-31T07:04:10.716Z,4.10
2017-10-31T07:06:37.016Z,4.20
2017-10-31T07:09:04.063Z,4.60
2017-10-31T07:11:31.120Z,4.90
2017-10-31T07:13:58.170Z,5.00
2017-10-31T07:16:24.626Z,5.00
2017-10-31T07:18:50.965Z,5.10
2017-10-31T07:21:17.291Z,5.20
2017-10-31T07:23:43.564Z,5.20
2017-10-31T07:26:09.868Z,5.30
2017-10-31T07:28:36.234Z,5.40
2017-10-31T07:31:02.567Z,5.60
2017-10-31T07:33:28.876Z,5.60
2017-10-31T07:35:56.669Z,5.80
2017-10-31T07:38:23.741Z,5.90
2017-10-31T07:40:50.228Z,5.90
2017-10-31T07:43:16.559Z,6.00
2017-10-31T07:45:42.873Z,6.00
2017-10-31T07:48:09.173Z,6.20
2017-10-31T07:50:35.447Z,6.40
2017-10-31T07:53:01.793Z,6.50
2017-10-31T07:55:28.113Z,6.70
2017-10-31T07:57:54.440Z,6.90
2017-10-31T08:00:20.783Z,7.00
2017-10-31T08:02:47.147Z,7.20
2017-10-31T08:05:13.470Z,7.40
2017-10-31T08:07:40.420Z,7.60
2017-10-31T08:10:06.734Z,7.70
2017-10-31T08:12:33.793Z,7.90
2017-10-31T08:15:00.108Z,7.80
2017-10-31T08:17:27.158Z,7.80
2017-10-31T08:19:54.205Z,7.70
2017-10-31T08:22:21.262Z,7.60
2017-10-31T08:24:48.441Z,7.70
2017-10-31T08:27:14.759Z,7.70
2017-10-31T08:29:41.084Z,7.80
2017-10-31T08:32:07.381Z,7.90
2017-10-31T08:34:34.460Z,7.70
2017-10-31T08:37:00.822Z,7.70
2017-10-31T08:39:27.103Z,7.80
2017-10-31T08:41:54.158Z,7.90
2017-10-31T08:44:21.307Z,8.00
2017-10-31T08:46:47.645Z,8.00
2017-10-31T08:49:13.965Z,8.10
2017-10-31T08:51:41.005Z,8.30
2017-10-31T08:54:08.133Z,8.40
2017-10-31T08:56:34.474Z,8.40
2017-10-31T08:59:00.849Z,8.50
2017-10-31T09:01:27.213Z,8.80
2017-10-31T09:03:53.524Z,9.10
2017-10-31T09:06:19.902Z,9.40
2017-10-31T09:08:46.935Z,10.20
2017-10-31T09:11:13.233Z,10.10
2017-10-31T09:13:39.568Z,10.50
2017-10-31T09:16:05.890Z,10.80
2017-10-31T09:18:32.200Z,11.00
2017-10-31T09:20:58.478Z,11.20
2017-10-31T09:23:24.804Z,11.20
2017-10-31T09:25:51.109Z,11.40
2017-10-31T09:28:17.421Z,11.50
2017-10-31T09:30:43.784Z,11.50
2017-10-31T09:33:10.102Z,11.50
2017-10-31T09:35:36.441Z,11.50
2017-10-31T09:38:02.742Z,11.60
2017-10-31T09:40:29.096Z,11.80
2017-10-31T09:42:55.769Z,12.00
2017-10-31T09:45:22.132Z,12.10
2017-10-31T09:47:48.431Z,12.30
2017-10-31T09:50:14.814Z,12.40
2017-10-31T09:52:41.117Z,12.30
2017-10-31T09:55:07.428Z,12.30
2017-10-31T09:57:34.506Z,12.60
2017-10-31T10:00:00.856Z,12.60
2017-10-31T10:02:27.237Z,12.80
2017-10-31T10:04:54.329Z,13.00
2017-10-31T10:07:20.642Z,13.00
2017-10-31T10:09:46.943Z,13.10
2017-10-31T10:12:14.288Z,12.90
2017-10-31T10:14:40.724Z,12.90
2017-10-31T10:17:07.087Z,12.70
2017-10-31T10:19:33.411Z,12.40
2017-10-31T10:21:59.773Z,12.50
2017-10-31T10:24:26.084Z,12.30
2017-10-31T10:26:52.460Z,12.20
2017-10-31T10:29:18.779Z,12.10
2017-10-31T10:31:45.163Z,12.20
2017-10-31T10:34:13.418Z,12.60
2017-10-31T10:36:40.537Z,12.60
2017-10-31T10:39:06.920Z,12.60
2017-10-31T10:41:33.952Z,12.70
2017-10-31T10:44:01.021Z,12.70
2017-10-31T10:46:27.340Z,12.70
2017-10-31T10:48:54.612Z,13.20
2017-10-31T10:51:20.942Z,13.20
2017-10-31T10:53:47.301Z,13.30
2017-10-31T10:56:13.608Z,13.40
2017-10-31T10:58:40.087Z,13.50
2017-10-31T11:01:06.405Z,13.70
2017-10-31T11:03:32.748Z,13.90
2017-10-31T11:05:59.052Z,14.00
2017-10-31T11:08:25.435Z,13.80
2017-10-31T11:10:52.569Z,13.70
2017-10-31T11:13:18.922Z,13.70
2017-10-31T11:15:46.050Z,13.90
2017-10-31T11:18:12.461Z,13.90
2017-10-31T11:20:39.184Z,13.90
2017-10-31T11:23:05.528Z,13.90
2017-10-31T11:25:31.960Z,13.80
2017-10-31T11:27:58.276Z,14.00
2017-10-31T11:30:24.584Z,13.90
2017-10-31T11:32:50.894Z,13.90
2017-10-31T11:35:17.193Z,13.90
2017-10-31T11:37:43.520Z,14.00
2017-10-31T11:40:09.812Z,14.10
2017-10-31T11:42:36.942Z,14.00
2017-10-31T11:45:03.541Z,14.00
2017-10-31T11:47:29.864Z,14.00
2017-10-31T11:49:56.277Z,14.10
2017-10-31T11:52:22.766Z,14.20
2017-10-31T11:54:49.883Z,14.30
2017-10-31T11:57:16.235Z,14.30
2017-10-31T11:59:43.297Z,14.30
2017-10-31T12:02:10.445Z,14.10
2017-10-31T12:04:37.578Z,14.00
2017-10-31T12:07:05.520Z,13.90
2017-10-31T12:09:31.855Z,13.90
2017-10-31T12:11:58.167Z,13.70
2017-10-31T12:14:24.505Z,13.60
2017-10-31T12:16:50.886Z,13.30
2017-10-31T12:19:25.095Z,12.70
2017-10-31T12:21:52.150Z,12.70
2017-10-31T12:24:18.467Z,12.60
2017-10-31T12:26:45.539Z,12.70
2017-10-31T12:29:11.956Z,12.70
2017-10-31T12:31:38.267Z,12.60
2017-10-31T12:34:04.559Z,12.60
2017-10-31T12:36:30.896Z,12.40
2017-10-31T12:38:57.224Z,12.40
2017-10-31T12:41:23.542Z,12.40
2017-10-31T12:43:49.892Z,12.40
2017-10-31T12:46:16.494Z,12.50
2017-10-31T12:48:44.194Z,12.80
2017-10-31T12:51:15.045Z,13.10
2017-10-31T12:53:42.179Z,13.70
2017-10-31T12:56:08.852Z,13.70
2017-10-31T12:58:35.887Z,13.80
2017-10-31T13:01:02.267Z,13.80
2017-10-31T13:03:28.584Z,13.90
2017-10-31T13:05:54.956Z,13.90
2017-10-31T13:08:21.250Z,13.90
2017-10-31T13:10:47.590Z,13.90
2017-10-31T13:13:19.166Z,14.00
2017-10-31T13:15:45.512Z,14.00
2017-10-31T13:18:11.838Z,14.10
2017-10-31T13:20:38.199Z,14.20
2017-10-31T13:23:05.269Z,14.10
2017-10-31T13:25:31.625Z,14.10
2017-10-31T13:27:58.166Z,14.00
2017-10-31T13:30:26.611Z,14.00
2017-10-31T13:32:54.151Z,14.10
2017-10-31T13:35:22.293Z,14.00
2017-10-31T13:37:49.252Z,14.00
2017-10-31T13:40:16.593Z,13.90
2017-10-31T13:42:44.314Z,13.80
2017-10-31T13:45:10.703Z,13.70
2017-10-31T13:47:37.903Z,13.80
2017-10-31T13:50:05.396Z,13.80
2017-10-31T13:52:38.684Z,13.90
2017-10-31T13:55:05.045Z,13.90
2017-10-31T13:57:32.136Z,14.00
2017-10-31T13:59:58.436Z,14.00
2017-10-31T14:02:26.585Z,14.00
2017-10-31T14:04:54.841Z,13.90
2017-10-31T14:07:21.954Z,13.90
2017-10-31T14:09:49.529Z,13.80
2017-10-31T14:12:17.068Z,13.70
2017-10-31T14:14:43.381Z,13.60
2017-10-31T14:17:10.518Z,13.40
2017-10-31T14:19:38.746Z,13.40
2017-10-31T14:22:05.373Z,13.40
2017-10-31T14:24:31.765Z,13.30
2017-10-31T14:26:58.792Z,13.10
2017-10-31T14:29:25.132Z,13.10
2017-10-31T14:31:52.203Z,12.80
2017-10-31T14:34:19.269Z,12.80
2017-10-31T14:36:45.572Z,12.80
2017-10-31T14:39:12.664Z,12.60
2017-10-31T14:41:39.022Z,12.60
2017-10-31T14:44:05.353Z,12.70
2017-10-31T14:46:31.639Z,12.60
2017-10-31T14:48:57.968Z,12.60
2017-10-31T14:51:24.280Z,12.50
2017-10-31T14:53:51.335Z,12.50
2017-10-31T14:56:18.498Z,12.40
2017-10-31T14:58:44.868Z,12.40
2017-10-31T15:01:11.184Z,12.30
2017-10-31T15:03:37.501Z,12.20
2017-10-31T15:06:03.890Z,12.10
2017-10-31T15:08:31.017Z,12.00
2017-10-31T15:10:57.390Z,12.00
2017-10-31T15:13:23.750Z,12.00
2017-10-31T15:15:50.147Z,11.90
2017-10-31T15:18:16.504Z,11.80
2017-10-31T15:20:42.860Z,11.70
2017-10-31T15:23:09.193Z,11.70
2017-10-31T15:25:35.483Z,11.60
2017-10-31T15:28:01.861Z,11.50
2017-10-31T15:30:28.160Z,11.50
2017-10-31T15:32:54.462Z,11.60
2017-10-31T15:35:20.759Z,11.40
2017-10-31T15:37:47.066Z,11.30
2017-10-31T15:40:13.393Z,11.30
2017-10-31T15:42:39.697Z,11.10
2017-10-31T15:45:06.014Z,10.90
2017-10-31T15:47:32.359Z,10.80
2017-10-31T15:49:58.672Z,10.70
2017-10-31T15:52:24.957Z,10.60
2017-10-31T15:54:51.289Z,10.60
2017-10-31T15:57:17.648Z,10.60
2017-10-31T15:59:44.739Z,10.50
2017-10-31T16:02:11.062Z,10.50
2017-10-31T16:04:37.350Z,10.40
2017-10-31T16:07:04.482Z,10.30
2017-10-31T16:09:30.817Z,10.30
2017-10-31T16:11:57.142Z,10.20
2017-10-31T16:14:23.460Z,10.10
2017-10-31T16:16:49.837Z,10.10
2017-10-31T16:19:16.161Z,10.30
2017-10-31T16:21:43.253Z,10.10
2017-10-31T16:24:09.600Z,10.10
2017-10-31T16:26:35.939Z,10.10
2017-10-31T16:29:02.266Z,10.00
2017-10-31T16:31:28.608Z,10.00
2017-10-31T16:33:54.950Z,9.90
2017-10-31T16:36:22.036Z,9.80
2017-10-31T16:38:48.336Z,9.80
2017-10-31T16:41:15.373Z,10.00
2017-10-31T16:43:42.400Z,9.90
2017-10-31T16:46:08.754Z,9.90
2017-10-31T16:48:35.808Z,9.70
2017-10-31T16:51:02.877Z,9.70
2017-10-31T16:53:29.198Z,9.70
2017-10-31T16:55:55.535Z,9.60
2017-10-31T16:58:21.989Z,9.60
2017-10-31T17:00:48.344Z,9.60
2017-10-31T17:03:14.720Z,9.70
2017-10-31T17:05:41.040Z,9.70
2017-10-31T17:08:08.173Z,9.90
2017-10-31T17:10:34.640Z,9.90
2017-10-31T17:13:00.970Z,9.80
2017-10-31T17:15:27.273Z,9.80
2017-10-31T17:17:53.647Z,9.70
2017-10-31T17:20:20.033Z,9.70
2017-10-31T17:22:47.125Z,9.60
2017-10-31T17:25:13.434Z,9.60
2017-10-31T17:27:40.499Z,9.80
2017-10-31T17:30:06.819Z,9.70
2017-10-31T17:32:33.137Z,9.70
2017-10-31T17:35:00.338Z,9.60
2017-10-31T17:37:26.676Z,9.60
2017-10-31T17:39:52.999Z,9.60
2017-10-31T17:42:19.316Z,9.60
2017-10-31T17:44:45.645Z,9.60
2017-10-31T17:47:11.955Z,9.60
2017-10-31T17:49:38.300Z,9.60
2017-10-31T17:52:04.763Z,9.50
2017-10-31T17:54:31.058Z,9.50
2017-10-31T17:56:57.370Z,9.60
2017-10-31T17:59:23.673Z,9.60
2017-10-31T18:01:50.746Z,9.70
2017-10-31T18:04:17.116Z,9.60
2017-10-31T18:06:43.462Z,9.70
2017-10-31T18:09:09.713Z,9.70
2017-10-31T18:11:36.768Z,9.80
2017-10-31T18:14:03.969Z,9.80
2017-10-31T18:16:30.328Z,9.70
2017-10-31T18:18:56.676Z,9.80
2017-10-31T18:21:23.804Z,9.90
2017-10-31T18:23:50.144Z,9.80
2017-10-31T18:26:16.468Z,9.80
2017-10-31T18:28:42.912Z,9.80
2017-10-31T18:31:09.318Z,9.80
2017-10-31T18:33:35.625Z,9.80
2017-10-31T18:36:01.943Z,9.90
2017-10-31T18:38:32.958Z,9.90
2017-10-31T18:40:59.459Z,9.90
2017-10-31T18:43:26.090Z,9.90
2017-10-31T18:45:54.662Z,9.90
2017-10-31T18:48:22.341Z,9.90
2017-10-31T18:50:48.650Z,9.90
2017-10-31T18:53:14.975Z,10.00
2017-10-31T18:55:43.489Z,10.10
2017-10-31T18:58:09.797Z,10.00
2017-10-31T19:00:38.083Z,10.00
2017-10-31T19:03:05.333Z,10.00
2017-10-31T19:05:31.653Z,9.90
2017-10-31T19:07:58.020Z,10.00
2017-10-31T19:10:24.351Z,10.00
2017-10-31T19:12:50.699Z,10.00
2017-10-31T19:15:17.890Z,10.00
2017-10-31T19:17:44.238Z,10.00
2017-10-31T19:20:10.631Z,10.00
2017-10-31T19:22:37.047Z,10.00
2017-10-31T19:25:04.246Z,10.00
2017-10-31T19:27:30.665Z,9.90
2017-10-31T19:29:57.008Z,9.90
2017-10-31T19:32:23.401Z,9.90
2017-10-31T19:34:50.609Z,9.90
2017-10-31T19:37:16.926Z,9.90
2017-10-31T19:39:43.250Z,9.90
2017-10-31T19:42:09.624Z,9.90
2017-10-31T19:44:36.924Z,9.90
2017-10-31T19:47:03.280Z,9.90
2017-10-31T19:49:29.638Z,9.90
2017-10-31T19:51:56.326Z,9.90
2017-10-31T19:54:23.411Z,9.90
2017-10-31T19:56:52.463Z,9.90
2017-10-31T19:59:19.131Z,9.90
2017-10-31T20:01:45.540Z,9.90
2017-10-31T20:04:12.131Z,9.90
2017-10-31T20:06:39.217Z,10.10
2017-10-31T20:09:05.566Z,10.00
2017-10-31T20:11:33.850Z,9.90
2017-10-31T20:14:00.251Z,9.90
2017-10-31T20:16:26.660Z,9.80
2017-10-31T20:18:53.793Z,9.90
2017-10-31T20:21:20.852Z,9.80
2017-10-31T20:23:48.029Z,9.80
2017-10-31T20:26:14.533Z,9.80
2017-10-31T20:28:41.672Z,9.80
2017-10-31T20:31:08.017Z,9.80
2017-10-31T20:33:35.194Z,9.80
2017-10-31T20:36:02.282Z,9.80
2017-10-31T20:38:28.735Z,9.70
2017-10-31T20:40:55.859Z,9.70
2017-10-31T20:43:22.258Z,9.70
2017-10-31T20:45:48.778Z,9.80
2017-10-31T20:48:15.114Z,9.70
2017-10-31T20:50:41.460Z,9.80
2017-10-31T20:53:08.111Z,9.80
2017-10-31T20:55:34.362Z,9.70
2017-10-31T20:58:00.694Z,9.70
2017-10-31T21:00:27.031Z,9.70
2017-10-31T21:02:53.373Z,9.80
2017-10-31T21:05:20.454Z,9.70
2017-10-31T21:07:46.754Z,9.70
2017-10-31T21:10:13.853Z,9.70
2017-10-31T21:12:40.191Z,9.70
2017-10-31T21:15:06.550Z,9.70
2017-10-31T21:17:32.895Z,9.60
2017-10-31T21:20:00.000Z,9.60
2017-10-31T21:22:26.369Z,9.60
2017-10-31T21:24:52.861Z,9.80
2017-10-31T21:27:19.202Z,9.80
2017-10-31T21:29:45.505Z,9.80
2017-10-31T21:32:11.862Z,9.70
2017-10-31T21:34:38.220Z,9.70
2017-10-31T21:37:04.572Z,9.70
2017-10-31T21:39:31.774Z,9.70
2017-10-31T21:41:58.109Z,9.70
2017-10-31T21:44:24.421Z,9.70
2017-10-31T21:46:50.720Z,9.80
2017-10-31T21:49:17.900Z,9.90
2017-10-31T21:51:44.348Z,9.90
2017-10-31T21:54:10.680Z,9.80
2017-10-31T21:56:37.080Z,9.70
2017-10-31T21:59:03.438Z,9.80
2017-10-31T22:01:29.788Z,9.70
2017-10-31T22:03:56.141Z,9.70
2017-10-31T22:06:23.217Z,9.80
2017-10-31T22:08:52.482Z,9.70
2017-10-31T22:11:18.826Z,9.70
2017-10-31T22:13:46.171Z,9.70
2017-10-31T22:16:13.229Z,9.70
2017-10-31T22:18:47.223Z,9.70
2017-10-31T22:21:14.306Z,9.70
2017-10-31T22:23:40.787Z,9.70
2017-10-31T22:26:07.129Z,9.70
2017-10-31T22:28:33.437Z,9.70
2017-10-31T22:30:59.770Z,9.60
2017-10-31T22:33:26.120Z,9.60
2017-10-31T22:35:52.421Z,9.60
2017-10-31T22:38:18.754Z,9.70
2017-10-31T22:40:45.280Z,9.70
2017-10-31T22:43:11.682Z,9.60
2017-10-31T22:45:38.006Z,9.60
2017-10-31T22:48:05.255Z,9.70
2017-10-31T22:50:32.400Z,9.80
2017-10-31T22:52:59.447Z,9.80
2017-10-31T22:55:26.498Z,9.80
2017-10-31T22:57:53.568Z,9.70
2017-10-31T23:00:19.891Z,9.70
2017-10-31T23:02:46.232Z,9.60
2017-10-31T23:05:12.597Z,9.60
2017-10-31T23:07:38.932Z,9.60
2017-10-31T23:10:05.294Z,9.70
2017-10-31T23:12:32.383Z,9.70
2017-10-31T23:14:58.681Z,9.60
2017-10-31T23:17:24.975Z,9.70
2017-10-31T23:19:51.285Z,9.60
2017-10-31T23:22:17.584Z,9.60
2017-10-31T23:24:43.916Z,9.70
2017-10-31T23:27:10.219Z,9.70
2017-10-31T23:29:37.261Z,9.90
2017-10-31T23:32:04.445Z,9.80
2017-10-31T23:34:30.739Z,9.80
2017-10-31T23:36:57.775Z,9.70
2017-10-31T23:39:24.048Z,9.70
2017-10-31T23:41:50.400Z,9.70
2017-10-31T23:44:16.683Z,9.70
2017-10-31T23:46:43.744Z,9.60
2017-10-31T23:49:10.760Z,9.60
2017-10-31T23:51:37.802Z,9.70
2017-10-31T23:54:04.129Z,9.70
2017-10-31T23:56:30.624Z,9.60
2017-10-31T23:58:56.928Z,9.60
